KSTJ/STJ METAR and TAF weather

Enter ICAO airport designator
Station Type Date Time Source
KSTJ METAR 2021/04/18 02:53 UTC NOAA

KSTJ 180253Z AUTO 32008KT 10SM BKN090 08/04 A3007 RMK AO2 SLP184 T00830039 53008


Station Type Date Time Source
KSTJ Decoded METAR 2021/04/18 02:53 UTC NOAA

ROSECRANS MEMORIAL AIRPORT, MO, United States (KSTJ) 39-46N 94-55W 247M
Apr 17, 2021 - 10:53 PM EDT / 2021.04.18 0253 UTC
Wind: from the NW (320 degrees) at 9 MPH (8 KT):0
Visibility: 10 mile(s):0
Sky conditions: mostly cloudy
Temperature: 46.9 F (8.3 C)
Dew Point: 39.0 F (3.9 C)
Relative Humidity: 73%
Pressure (altimeter): 30.07 in. Hg (1018 hPa)
Pressure tendency: 0.02 inches (0.8 hPa) higher than three hours ago
ob: KSTJ 180253Z AUTO 32008KT 10SM BKN090 08/04 A3007 RMK AO2 SLP184 T00830039 53008
cycle: 3

Station Type Date Time Source
KSTJ TAF 2021/04/17 23:58 UTC NOAA

TAF
AMD KSTJ 172258Z 1723/1818 33012KT P6SM VCSH BKN040
TEMPO 1723/1724 5SM -RA
FM180100 33007KT P6SM BKN040

Example: see airport list